Time;durP1;ratioP1;P1;durP2;ratioP2;P2;SDS_P1;SDS_P2;PMS_P1;PMS_P2;Temp;Humidity;BMP_temperature;BMP_pressure;BME280_temperature;BME280_humidity;BME280_pressure;Samples;Min_cycle;Max_cycle;Signal;HPM_P1;HPM_P2
2023/09/06 00:01:10;;;;;;;;;;;;;;;12.10;81.96;97062.53;6196406;28;20050;-68
2023/09/06 00:04:13;;;;;;;22.45;12.23;;;;;;;12.17;81.31;97065.59;6196379;28;20289;-70
2023/09/06 00:07:22;;;;;;;22.17;12.90;;;;;;;12.07;81.85;97067.19;6196285;28;20046;-69
2023/09/06 00:10:28;;;;;;;21.60;13.60;;;;;;;11.99;82.24;97062.44;6196389;28;20054;-68
2023/09/06 00:13:32;;;;;;;;;;;;;;;12.10;81.59;97067.81;6196770;28;20053;-68
2023/09/06 00:16:36;;;;;;;18.77;11.88;;;;;;;11.97;82.07;97068.75;6196281;28;19922;-70
2023/09/06 00:19:39;;;;;;;;;;;;;;;11.96;81.70;97067.91;6196368;28;20054;-69
2023/09/06 00:22:46;;;;;;;22.60;12.82;;;;;;;11.97;82.06;97074.88;6195712;28;20320;-69
2023/09/06 00:25:48;;;;;;;20.77;13.43;;;;;;;11.96;82.32;97073.19;6194855;28;20173;-70
2023/09/06 00:28:54;;;;;;;23.88;13.00;;;;;;;11.95;82.70;97071.50;6195581;28;20050;-69
2023/09/06 00:31:58;;;;;;;21.77;12.90;;;;;;;11.85;82.54;97065.13;6195925;28;20065;-69
2023/09/06 00:35:01;;;;;;;22.15;12.45;;;;;;;11.86;82.90;97062.44;6193493;28;20433;-69
2023/09/06 00:38:04;;;;;;;21.85;12.52;;;;;;;11.86;83.07;97072.09;6195247;28;20051;-69
2023/09/06 00:41:10;;;;;;;23.50;12.43;;;;;;;11.90;82.92;97057.78;6195844;28;20042;-71
2023/09/06 00:44:11;;;;;;;20.27;12.45;;;;;;;11.94;83.10;97064.53;6195246;28;20421;-69
2023/09/06 00:47:15;;;;;;;23.13;12.73;;;;;;;11.94;83.17;97067.16;6195685;28;20042;-68
2023/09/06 00:50:17;;;;;;;20.95;13.02;;;;;;;11.84;83.26;97043.19;6195138;28;20074;-68
2023/09/06 00:53:24;;;;;;;20.80;12.70;;;;;;;11.97;82.99;97053.78;6195612;28;20050;-69
2023/09/06 00:56:30;;;;;;;27.02;14.07;;;;;;;11.89;83.00;97050.84;6195696;28;20128;-69
2023/09/06 00:59:35;;;;;;;24.60;13.10;;;;;;;11.93;83.23;97057.56;6195088;28;20054;-68
2023/09/06 01:02:38;;;;;;;19.98;12.38;;;;;;;11.88;83.34;97057.03;6195803;28;20046;-69
2023/09/06 01:05:54;;;;;;;;;;;;;;;11.92;83.31;97066.44;6195866;28;20046;-67
2023/09/06 01:08:58;;;;;;;21.42;11.55;;;;;;;11.94;83.14;97056.63;6194319;28;19922;-68
2023/09/06 01:12:02;;;;;;;20.65;12.80;;;;;;;12.02;83.07;97066.66;6195536;28;20042;-70
2023/09/06 01:15:06;;;;;;;;;;;;;;;12.03;83.19;97063.94;6195634;28;20042;-68
2023/09/06 01:18:13;;;;;;;20.58;12.30;;;;;;;12.07;82.61;97060.13;6195430;28;19922;-68
2023/09/06 01:21:20;;;;;;;25.10;13.50;;;;;;;12.11;82.46;97051.03;6195222;28;20046;-68
2023/09/06 01:24:24;;;;;;;20.73;12.68;;;;;;;12.18;82.51;97061.19;6194950;28;20047;-68
2023/09/06 01:27:29;;;;;;;21.30;13.50;;;;;;;12.20;82.05;97046.09;6195227;28;20133;-68
2023/09/06 01:30:30;;;;;;;21.92;12.45;;;;;;;12.27;82.03;97055.28;6195165;28;20421;-68
2023/09/06 01:33:34;;;;;;;;;;;;;;;12.24;82.05;97053.69;6195384;28;20050;-68
2023/09/06 01:36:43;;;;;;;19.65;12.13;;;;;;;12.27;81.66;97056.13;6195349;28;19977;-69
2023/09/06 01:39:47;;;;;;;24.10;14.07;;;;;;;12.33;81.36;97054.84;6195009;28;20042;-69
2023/09/06 01:42:54;;;;;;;22.50;12.82;;;;;;;12.38;80.91;97063.31;6193615;28;20053;-68
2023/09/06 01:45:58;;;;;;;22.75;12.82;;;;;;;12.29;81.15;97061.31;6194924;28;20093;-70
2023/09/06 01:49:01;;;;;;;23.15;13.82;;;;;;;12.32;81.16;97058.47;6198943;28;20785;-69
2023/09/06 01:52:05;;;;;;;23.52;13.65;;;;;;;12.28;81.08;97052.53;6199450;28;20045;-69
2023/09/06 01:55:11;;;;;;;22.83;13.38;;;;;;;12.35;81.20;97063.53;6201898;28;20046;-69
2023/09/06 01:58:15;;;;;;;23.20;13.43;;;;;;;12.32;81.15;97055.81;6198580;28;20047;-69
2023/09/06 02:01:20;;;;;;;22.00;14.10;;;;;;;12.43;81.06;97055.09;6199275;28;20337;-69
2023/09/06 02:04:22;;;;;;;23.92;13.40;;;;;;;12.40;80.89;97050.84;6199012;28;20437;-69
2023/09/06 02:07:26;;;;;;;20.60;12.88;;;;;;;12.47;81.34;97051.25;6199142;28;20454;-69
2023/09/06 02:10:32;;;;;;;24.10;13.25;;;;;;;12.58;80.75;97048.72;6198583;28;20576;-69
2023/09/06 02:13:33;;;;;;;22.17;13.07;;;;;;;12.61;80.75;97042.38;6198552;28;20089;-69
2023/09/06 02:16:40;;;;;;;22.13;12.25;;;;;;;12.63;80.70;97040.50;6198683;28;20070;-68
2023/09/06 02:19:45;;;;;;;22.73;11.88;;;;;;;12.69;80.61;97055.88;6198788;28;20046;-68
2023/09/06 02:22:51;;;;;;;24.60;13.15;;;;;;;12.69;80.37;97042.69;6198829;28;20042;-68
2023/09/06 02:25:52;;;;;;;;;;;;;;;12.80;79.78;97048.06;6198928;28;20042;-69
2023/09/06 02:28:56;;;;;;;26.52;12.93;;;;;;;12.67;79.98;97041.94;6198503;28;19921;-68
2023/09/06 02:32:00;;;;;;;27.52;13.85;;;;;;;12.63;80.14;97030.78;6198178;28;20054;-68
2023/09/06 02:35:06;;;;;;;28.45;14.02;;;;;;;12.80;79.88;97042.78;6197832;28;20058;-69
2023/09/06 02:38:13;;;;;;;25.52;13.60;;;;;;;12.72;79.98;97039.84;6197224;28;21307;-69
2023/09/06 02:41:20;;;;;;;26.88;14.93;;;;;;;12.73;80.21;97049.44;6198219;28;20502;-69
2023/09/06 02:44:21;;;;;;;27.42;14.85;;;;;;;12.73;80.11;97041.50;6197931;28;20213;-68
2023/09/06 02:47:25;;;;;;;33.20;15.20;;;;;;;12.68;80.14;97043.63;6180413;28;20054;-69
2023/09/06 02:50:29;;;;;;;;;;;;;;;12.80;80.13;97048.91;6197812;28;20510;-68
2023/09/06 02:53:44;;;;;;;30.10;12.90;;;;;;;12.76;79.98;97044.78;6213052;28;19921;-69
2023/09/06 02:56:45;;;;;;;22.50;11.60;;;;;;;12.83;79.35;97032.00;6197597;28;20092;-69
2023/09/06 02:59:56;;;;;;;24.75;11.68;;;;;;;12.82;79.44;97046.13;6196399;28;20042;-70
2023/09/06 03:03:05;;;;;;;24.20;12.93;;;;;;;12.85;79.14;97040.66;6197487;28;20045;-70
2023/09/06 03:06:17;;;;;;;25.45;12.88;;;;;;;12.86;79.51;97052.06;6197514;28;20046;-69
2023/09/06 03:09:28;;;;;;;31.10;14.07;;;;;;;13.00;78.11;97044.00;6197457;28;20046;-70
2023/09/06 03:12:35;;;;;;;25.17;12.55;;;;;;;12.80;78.97;97042.78;6197235;28;20050;-70
2023/09/06 03:15:43;;;;;;;25.85;13.32;;;;;;;12.75;79.22;97045.72;6196906;28;20057;-68
2023/09/06 03:18:49;;;;;;;25.85;11.18;;;;;;;12.76;79.68;97041.28;6196982;28;20054;-68
2023/09/06 03:21:57;;;;;;;19.80;11.27;;;;;;;12.88;79.49;97040.44;6197498;28;20039;-69
2023/09/06 03:25:04;;;;;;;24.98;11.55;;;;;;;12.94;79.30;97040.00;6197349;28;20093;-69
2023/09/06 03:28:11;;;;;;;24.10;12.20;;;;;;;13.08;79.32;97036.38;6196934;28;20560;-68
2023/09/06 03:31:15;;;;;;;18.52;10.35;;;;;;;13.22;78.35;97038.00;6196842;28;20039;-69
2023/09/06 03:34:22;;;;;;;17.38;10.40;;;;;;;13.20;77.79;97039.91;6196235;28;20104;-69
2023/09/06 03:37:28;;;;;;;17.60;10.15;;;;;;;13.21;77.26;97031.00;6196767;28;20050;-69
2023/09/06 03:40:36;;;;;;;14.90;9.27;;;;;;;13.21;77.63;97038.94;6196104;28;20065;-68
2023/09/06 03:43:40;;;;;;;13.43;8.80;;;;;;;13.18;77.74;97032.06;6196575;28;20511;-68
2023/09/06 03:46:41;;;;;;;11.68;8.20;;;;;;;13.33;76.90;97038.06;6196640;28;20038;-68
2023/09/06 03:49:45;;;;;;;;;;;;;;;13.45;77.15;97060.97;6196791;28;20414;-69
2023/09/06 03:52:53;;;;;;;11.05;7.20;;;;;;;13.58;76.73;97054.78;6196131;28;20300;-69
2023/09/06 03:56:00;;;;;;;12.50;7.82;;;;;;;13.61;76.55;97059.84;6196427;28;20050;-69
2023/09/06 03:59:08;;;;;;;14.80;7.88;;;;;;;13.64;75.42;97064.88;6196360;28;20053;-69
2023/09/06 04:02:13;;;;;;;14.88;7.57;;;;;;;13.65;75.68;97056.03;6196490;28;20510;-69
2023/09/06 04:05:20;;;;;;;11.10;6.95;;;;;;;13.77;75.68;97060.38;6195861;28;20510;-69
2023/09/06 04:08:28;;;;;;;11.52;7.55;;;;;;;13.87;74.98;97065.81;6196090;28;20045;-69
2023/09/06 04:11:34;;;;;;;12.55;8.65;;;;;;;13.83;74.06;97054.63;6195917;28;20129;-69
2023/09/06 04:14:38;;;;;;;11.95;7.70;;;;;;;13.65;74.75;97070.06;6195900;28;20451;-69
2023/09/06 04:17:42;;;;;;;12.07;7.45;;;;;;;13.62;75.17;97062.38;6195921;28;20436;-69
2023/09/06 04:20:51;;;;;;;15.27;8.20;;;;;;;13.77;74.33;97065.66;6195873;28;20050;-69
2023/09/06 04:23:59;;;;;;;15.10;8.45;;;;;;;13.71;74.06;97063.50;6195828;28;20038;-69
2023/09/06 04:27:03;;;;;;;14.07;8.45;;;;;;;13.58;74.55;97060.06;6195488;28;20046;-69
2023/09/06 04:30:08;;;;;;;14.25;8.25;;;;;;;13.78;73.74;97062.06;6195863;28;20042;-69
2023/09/06 04:33:15;;;;;;;12.25;7.95;;;;;;;13.65;73.94;97051.56;6195263;28;20053;-69
2023/09/06 04:36:23;;;;;;;14.82;7.28;;;;;;;13.64;74.43;97049.88;6195564;28;20137;-68
2023/09/06 04:39:30;;;;;;;11.38;7.25;;;;;;;13.92;73.92;97055.72;6195385;28;20049;-68
2023/09/06 04:42:33;;;;;;;9.40;6.53;;;;;;;14.03;73.24;97060.22;6195337;28;20042;-70
2023/09/06 04:45:38;;;;;;;8.77;5.93;;;;;;;14.03;73.31;97054.94;6195443;28;20046;-68
2023/09/06 04:48:40;;;;;;;9.65;6.30;;;;;;;14.03;73.16;97050.47;6195200;28;20445;-68
2023/09/06 04:51:46;;;;;;;10.57;6.00;;;;;;;13.91;73.25;97041.66;6197031;28;20038;-68
2023/09/06 04:54:52;;;;;;;8.52;5.47;;;;;;;13.99;73.49;97049.03;6196227;28;20057;-68
2023/09/06 04:57:53;;;;;;;8.93;5.67;;;;;;;14.12;73.27;97059.50;6193841;28;20137;-70
2023/09/06 05:01:01;;;;;;;9.82;6.10;;;;;;;14.42;72.13;97058.13;6195013;28;20054;-69
2023/09/06 05:04:03;;;;;;;9.00;6.05;;;;;;;14.60;71.37;97035.53;6194756;28;20050;-70
2023/09/06 05:07:07;;;;;;;10.43;6.32;;;;;;;14.90;69.86;97063.25;6195010;28;20042;-70
2023/09/06 05:10:14;;;;;;;29.35;15.05;;;;;;;14.94;69.94;97062.00;6195064;28;20137;-70
2023/09/06 05:13:18;;;;;;;12.70;7.65;;;;;;;14.99;69.85;97049.25;6195154;28;20038;-68
2023/09/06 05:16:26;;;;;;;10.55;6.55;;;;;;;14.82;69.79;97054.06;6195226;28;20561;-68
2023/09/06 05:19:32;;;;;;;8.25;5.70;;;;;;;14.63;70.18;97059.13;6194465;28;20055;-68
2023/09/06 05:22:34;;;;;;;9.32;5.82;;;;;;;14.67;69.97;97059.75;6197751;28;20042;-70
2023/09/06 05:25:35;;;;;;;7.95;5.57;;;;;;;14.87;69.44;97050.22;6199765;28;20050;-69
2023/09/06 05:28:38;;;;;;;8.93;5.87;;;;;;;15.13;68.46;97041.03;6200045;28;20056;-69
2023/09/06 05:31:44;;;;;;;8.40;5.47;;;;;;;15.16;68.44;97040.78;6198204;28;20125;-68
2023/09/06 05:34:46;;;;;;;7.88;5.32;;;;;;;15.17;68.09;97031.88;6199259;28;20210;-68
2023/09/06 05:37:47;;;;;;;7.57;5.03;;;;;;;15.27;67.81;97026.66;6199042;28;20055;-67
2023/09/06 05:40:53;;;;;;;6.97;4.60;;;;;;;15.41;67.75;97033.50;6198848;28;20050;-69
2023/09/06 05:43:59;;;;;;;6.25;4.15;;;;;;;15.77;67.13;97028.78;6199293;28;20046;-70
2023/09/06 05:47:03;;;;;;;5.05;3.67;;;;;;;16.36;65.35;97037.03;6198680;28;20046;-70
2023/09/06 05:50:08;;;;;;;4.95;4.05;;;;;;;16.40;64.31;97026.97;6199682;28;20038;-68
2023/09/06 05:53:15;;;;;;;5.65;3.58;;;;;;;16.27;64.49;97031.66;6199196;28;20046;-68
2023/09/06 05:56:18;;;;;;;4.00;3.53;;;;;;;15.94;64.43;97036.19;6199007;28;20055;-68
2023/09/06 05:59:23;;;;;;;5.05;3.92;;;;;;;15.75;65.75;97025.44;6199016;28;20426;-69
2023/09/06 06:02:30;;;;;;;7.75;5.15;;;;;;;15.87;64.79;97017.28;6199263;28;20081;-69
2023/09/06 06:05:32;;;;;;;6.75;4.90;;;;;;;15.85;64.31;97021.91;6198847;28;20521;-69
2023/09/06 06:08:33;;;;;;;5.35;4.07;;;;;;;15.87;64.69;97024.41;6199047;28;20038;-69
2023/09/06 06:11:37;;;;;;;5.30;4.13;;;;;;;16.09;64.10;97018.97;6198906;28;20034;-69
2023/09/06 06:14:41;;;;;;;5.43;4.20;;;;;;;16.16;63.96;97020.16;6198827;28;20078;-69
2023/09/06 06:17:43;;;;;;;6.38;4.32;;;;;;;16.21;63.52;97026.88;6198795;28;20049;-69
2023/09/06 06:20:47;;;;;;;6.10;4.13;;;;;;;16.14;63.65;97023.91;6198723;28;20045;-69
2023/09/06 06:23:50;;;;;;;6.95;4.55;;;;;;;16.13;62.94;97017.72;6197909;28;20046;-68
2023/09/06 06:26:54;;;;;;;7.15;4.40;;;;;;;16.11;63.21;97017.03;6198440;28;20042;-68
2023/09/06 06:29:55;;;;;;;;;;;;;;;16.09;63.13;97026.94;6198931;28;20050;-68
2023/09/06 06:33:00;;;;;;;6.03;4.53;;;;;;;16.06;63.18;97019.22;6197942;28;20346;-69
2023/09/06 06:36:06;;;;;;;5.95;4.20;;;;;;;16.40;62.92;97019.00;6198347;28;20461;-69
2023/09/06 06:39:12;;;;;;;5.93;4.57;;;;;;;16.92;61.63;97017.13;6197525;28;20050;-69
2023/09/06 06:42:13;;;;;;;6.50;3.90;;;;;;;17.25;60.40;97012.47;6198247;28;20065;-69
2023/09/06 06:45:17;;;;;;;6.43;4.90;;;;;;;17.39;59.75;97011.22;6198160;28;20051;-67
2023/09/06 06:48:21;;;;;;;6.10;3.60;;;;;;;17.32;59.84;97012.75;6197826;28;20047;-69
2023/09/06 06:51:26;;;;;;;4.75;3.85;;;;;;;17.51;59.56;97018.94;6196620;28;20070;-69
2023/09/06 06:54:31;;;;;;;4.45;3.95;;;;;;;18.00;58.58;97013.63;6198214;28;20122;-68
2023/09/06 06:57:37;;;;;;;3.75;3.10;;;;;;;18.22;57.16;97020.44;6197910;28;20042;-68
2023/09/06 07:00:42;;;;;;;4.47;3.58;;;;;;;18.38;55.82;97018.03;6198774;28;20050;-68
2023/09/06 07:03:44;;;;;;;4.25;3.58;;;;;;;18.74;55.59;97012.91;6195436;28;20050;-68
2023/09/06 07:06:50;;;;;;;5.50;3.30;;;;;;;19.55;54.17;97016.63;6196580;28;20042;-68
2023/09/06 07:09:53;;;;;;;4.03;3.13;;;;;;;19.95;52.61;97013.50;6196594;28;20046;-69
2023/09/06 07:12:55;;;;;;;4.13;3.05;;;;;;;19.68;53.10;97017.13;6197092;28;20043;-68
2023/09/06 07:15:57;;;;;;;3.50;3.05;;;;;;;19.39;53.38;97006.63;6197213;28;20049;-68
2023/09/06 07:18:58;;;;;;;3.05;2.72;;;;;;;19.43;53.39;97013.34;6196735;28;20366;-68
2023/09/06 07:22:01;;;;;;;4.47;3.50;;;;;;;19.64;52.90;97005.88;6196584;28;20057;-69
2023/09/06 07:25:05;;;;;;;6.18;3.78;;;;;;;19.76;52.44;97003.00;6196924;28;20053;-68
2023/09/06 07:28:06;;;;;;;3.78;3.40;;;;;;;19.97;51.83;97011.53;6196006;28;20043;-69
2023/09/06 07:31:09;;;;;;;4.32;2.85;;;;;;;20.86;50.45;97007.75;6194556;28;20043;-68
2023/09/06 07:34:10;;;;;;;3.65;2.88;;;;;;;22.46;47.01;97001.31;6195540;28;20092;-69
2023/09/06 07:37:13;;;;;;;4.25;2.65;;;;;;;24.97;41.94;97008.91;6196861;28;20050;-69
2023/09/06 07:40:17;;;;;;;3.05;2.60;;;;;;;28.17;36.97;97002.94;6196782;28;20050;-69
2023/09/06 07:43:20;;;;;;;4.80;3.03;;;;;;;29.27;33.99;97010.47;6196582;28;20133;-68
2023/09/06 07:46:26;;;;;;;3.55;2.97;;;;;;;29.48;32.70;96993.94;6195123;28;20050;-69
2023/09/06 07:49:31;;;;;;;4.00;2.83;;;;;;;28.24;34.55;96985.88;6197317;28;20140;-67
2023/09/06 07:52:36;;;;;;;4.07;2.75;;;;;;;27.24;36.31;96978.38;6198511;28;20421;-68
2023/09/06 07:55:44;;;;;;;3.13;2.70;;;;;;;26.78;36.54;96981.66;6196503;28;20042;-67
2023/09/06 07:58:50;;;;;;;3.00;2.47;;;;;;;31.14;30.62;96983.66;6196520;28;20050;-68
2023/09/06 08:01:53;;;;;;;3.60;3.00;;;;;;;35.87;24.77;96985.47;6196014;28;20046;-67
2023/09/06 08:04:57;;;;;;;;;;;;;;;39.49;20.92;96985.84;6194721;28;20050;-67
2023/09/06 08:08:06;;;;;;;3.45;2.65;;;;;;;37.31;22.48;96971.75;6196173;28;19917;-67
2023/09/06 08:11:10;;;;;;;5.45;2.55;;;;;;;36.46;24.19;96971.75;6195947;28;20149;-67
2023/09/06 08:14:14;;;;;;;2.17;1.90;;;;;;;37.38;22.60;96966.84;6196190;28;20046;-67
2023/09/06 08:17:15;;;;;;;2.83;2.42;;;;;;;39.67;20.30;96970.59;6196185;28;20418;-67
2023/09/06 08:20:22;;;;;;;2.50;2.28;;;;;;;40.95;19.21;96966.81;6195928;28;20401;-67
2023/09/06 08:23:26;;;;;;;3.38;2.03;;;;;;;41.92;17.32;96973.94;6195604;28;20517;-67
2023/09/06 08:26:29;;;;;;;2.10;1.90;;;;;;;42.69;16.91;96964.41;6195283;28;20045;-67
2023/09/06 08:29:32;;;;;;;1.92;1.83;;;;;;;43.98;16.14;96965.41;6195361;28;20047;-67
2023/09/06 08:32:40;;;;;;;2.88;2.35;;;;;;;41.16;18.14;96950.06;6195674;28;20526;-67
2023/09/06 08:35:47;;;;;;;2.42;2.10;;;;;;;37.50;20.70;96937.25;6195657;28;20498;-67
2023/09/06 08:38:51;;;;;;;2.58;2.22;;;;;;;35.31;23.49;96926.28;6195067;28;20046;-67
2023/09/06 08:41:57;;;;;;;3.75;2.42;;;;;;;34.20;23.92;96920.91;6195611;28;20058;-67
2023/09/06 08:45:05;;;;;;;2.90;2.35;;;;;;;35.02;23.61;96924.84;6195755;28;20042;-67
2023/09/06 08:48:13;;;;;;;3.50;3.20;;;;;;;37.44;21.09;96923.78;6195612;28;20061;-68
2023/09/06 08:51:15;;;;;;;4.38;2.58;;;;;;;39.05;19.50;96930.66;6195714;28;20046;-68
2023/09/06 08:54:19;;;;;;;3.53;2.30;;;;;;;38.45;19.46;96921.47;6195897;28;20046;-70
2023/09/06 08:57:21;;;;;;;3.65;2.78;;;;;;;38.06;20.27;96916.50;6199079;28;20137;-68
2023/09/06 09:00:25;;;;;;;2.85;2.13;;;;;;;38.71;20.10;96909.28;6199305;28;20050;-67
2023/09/06 09:03:31;;;;;;;2.92;2.65;;;;;;;40.34;18.16;96918.63;6200117;28;20065;-69
2023/09/06 09:06:35;;;;;;;2.90;2.65;;;;;;;40.97;17.88;96922.41;6200457;28;20042;-68
2023/09/06 09:10:10;;;;;;;3.28;2.97;;;;;;;39.94;18.55;96920.56;6200412;28;20050;-68
2023/09/06 09:13:15;;;;;;;4.95;2.85;;;;;;;37.68;20.49;96908.50;6199977;28;20054;-68
2023/09/06 09:16:22;;;;;;;3.97;2.90;;;;;;;36.61;21.70;96906.13;6199029;28;20050;-68
2023/09/06 09:19:29;;;;;;;3.08;2.70;;;;;;;34.89;22.81;96909.63;6200085;28;20137;-69
2023/09/06 09:22:40;;;;;;;4.68;2.75;;;;;;;33.27;24.77;96891.13;6199447;28;20069;-69
2023/09/06 09:25:51;;;;;;;4.03;2.85;;;;;;;31.89;26.68;96889.94;6199748;28;20563;-69
2023/09/06 09:28:55;;;;;;;3.45;2.78;;;;;;;31.25;27.44;96886.88;6199829;28;20041;-68
2023/09/06 09:32:03;;;;;;;4.15;3.17;;;;;;;31.88;26.59;96882.84;6199558;28;20082;-69
2023/09/06 09:35:15;;;;;;;3.90;3.17;;;;;;;31.36;26.85;96875.25;6199620;28;20046;-69
2023/09/06 09:38:20;;;;;;;3.40;3.08;;;;;;;30.49;28.13;96869.19;6198546;28;20050;-68
2023/09/06 09:41:25;;;;;;;4.20;3.20;;;;;;;29.72;29.43;96874.91;6199444;28;20050;-69
2023/09/06 09:44:27;;;;;;;4.00;3.35;;;;;;;28.55;30.94;96864.25;6199239;28;20421;-69
2023/09/06 09:47:31;;;;;;;4.07;2.90;;;;;;;27.40;32.87;96860.16;6199367;28;20049;-68
2023/09/06 09:50:41;;;;;;;5.93;3.78;;;;;;;26.41;34.34;96856.88;6198217;28;20129;-68
2023/09/06 09:53:48;;;;;;;5.40;3.70;;;;;;;26.03;35.31;96847.53;6199135;28;20414;-69
2023/09/06 09:57:12;;;;;;;4.43;3.80;;;;;;;25.90;35.23;96851.81;6199450;28;20046;-68
2023/09/06 10:00:17;;;;;;;6.15;4.45;;;;;;;25.12;36.83;96844.63;6198796;28;20054;-69
2023/09/06 10:03:23;;;;;;;5.50;4.57;;;;;;;24.81;37.45;96837.69;6198827;28;20421;-69
2023/09/06 10:06:31;;;;;;;5.95;4.53;;;;;;;25.02;37.24;96848.44;6198068;28;20046;-69
2023/09/06 10:09:34;;;;;;;5.75;4.30;;;;;;;25.25;37.07;96840.25;6198460;28;20434;-69
2023/09/06 10:12:49;;;;;;;13.48;4.55;;;;;;;26.15;35.87;96835.97;6199026;28;20042;-69
2023/09/06 10:15:56;;;;;;;6.32;4.45;;;;;;;26.56;35.05;96842.47;6198780;28;20054;-69
2023/09/06 10:19:00;;;;;;;5.80;4.20;;;;;;;26.73;34.86;96832.16;6198631;28;20046;-69
2023/09/06 10:22:14;;;;;;;5.45;4.32;;;;;;;27.70;33.11;96833.56;6198560;28;20050;-69
2023/09/06 10:25:21;;;;;;;8.10;4.20;;;;;;;29.31;31.08;96830.16;6197927;28;20053;-69
2023/09/06 10:28:25;;;;;;;5.18;4.30;;;;;;;30.89;28.33;96836.19;6198063;28;20043;-69
2023/09/06 10:31:34;;;;;;;6.43;4.60;;;;;;;30.31;29.46;96830.13;6198102;28;20054;-68
2023/09/06 10:34:45;;;;;;;5.95;4.65;;;;;;;28.53;31.65;96833.84;6198359;28;20419;-68
2023/09/06 10:38:05;;;;;;;7.57;5.63;;;;;;;26.23;35.26;96826.91;6198043;28;20042;-69
2023/09/06 10:41:12;;;;;;;5.95;4.68;;;;;;;25.10;37.25;96821.41;6198061;28;20429;-69
2023/09/06 10:44:16;;;;;;;6.53;4.40;;;;;;;25.22;37.32;96813.72;6198226;28;20046;-70
2023/09/06 10:47:31;;;;;;;6.30;4.45;;;;;;;26.73;34.97;96819.47;6198106;28;20506;-69
2023/09/06 10:50:36;;;;;;;7.80;4.55;;;;;;;28.65;31.98;96824.03;6199623;28;20050;-69
2023/09/06 10:53:48;;;;;;;4.45;3.88;;;;;;;29.76;30.00;96830.03;6197730;28;20426;-69
2023/09/06 10:57:09;;;;;;;8.20;4.18;;;;;;;30.23;29.25;96838.56;6197643;28;20131;-68
2023/09/06 11:00:17;;;;;;;5.18;4.25;;;;;;;30.41;29.06;96829.63;6197390;28;20587;-69
2023/09/06 11:03:21;;;;;;;6.32;4.57;;;;;;;31.02;28.57;96835.97;6196934;28;20061;-69
2023/09/06 11:06:24;;;;;;;6.43;4.22;;;;;;;30.80;28.34;96838.34;6195321;28;20050;-69
2023/09/06 11:09:30;;;;;;;4.63;4.20;;;;;;;30.27;29.17;96845.22;6197700;28;20128;-69
2023/09/06 11:12:38;;;;;;;11.15;7.15;;;;;;;30.04;29.01;96815.19;6197618;28;20034;-69
2023/09/06 11:15:41;;;;;;;6.03;4.75;;;;;;;29.93;29.78;96839.28;6197176;28;20137;-69
2023/09/06 11:18:46;;;;;;;6.20;4.15;;;;;;;29.08;30.69;96833.44;6195875;28;20046;-69
2023/09/06 11:22:06;;;;;;;5.20;4.30;;;;;;;27.99;32.61;96826.91;6196945;28;20053;-69
2023/09/06 11:25:23;;;;;;;5.78;3.45;;;;;;;27.13;33.95;96826.84;6197046;28;20042;-69
2023/09/06 11:28:29;;;;;;;5.70;3.63;;;;;;;26.50;34.64;96824.34;6196978;28;20414;-68
2023/09/06 11:31:34;;;;;;;6.00;4.03;;;;;;;25.79;35.91;96814.59;6196526;28;20042;-69
2023/09/06 11:34:45;;;;;;;6.00;4.22;;;;;;;24.58;38.11;96806.38;6196875;28;20054;-70
2023/09/06 11:37:53;;;;;;;6.40;3.95;;;;;;;23.59;39.80;96795.03;6196694;28;20049;-68
2023/09/06 11:40:56;;;;;;;4.78;3.75;;;;;;;23.04;41.36;96796.19;6196340;28;20050;-69
2023/09/06 11:44:09;;;;;;;6.53;3.97;;;;;;;22.60;42.05;96783.41;6196713;28;20066;-70
2023/09/06 11:47:23;;;;;;;8.80;4.40;;;;;;;22.62;42.47;96789.44;6196421;28;20089;-69
2023/09/06 11:50:29;;;;;;;4.65;3.90;;;;;;;23.34;40.67;96798.97;6195624;28;20058;-69
2023/09/06 11:53:39;;;;;;;6.55;3.55;;;;;;;23.30;40.90;96796.66;6196122;28;20046;-69
2023/09/06 11:56:48;;;;;;;5.85;3.80;;;;;;;22.97;41.54;96804.13;6195794;28;20557;-70
2023/09/06 11:59:52;;;;;;;4.97;3.88;;;;;;;23.52;40.73;96799.47;6195945;28;20532;-69
2023/09/06 12:03:03;;;;;;;7.18;4.38;;;;;;;24.58;39.09;96801.00;6195774;28;20058;-70
2023/09/06 12:06:08;;;;;;;6.00;4.10;;;;;;;24.94;38.29;96792.06;6195129;28;20050;-68
2023/09/06 12:09:12;;;;;;;5.03;4.05;;;;;;;24.40;38.65;96792.47;6195941;28;20061;-70
2023/09/06 12:12:17;;;;;;;9.68;4.38;;;;;;;23.81;39.76;96779.91;6195740;28;20038;-68
2023/09/06 12:15:20;;;;;;;11.32;4.18;;;;;;;23.70;40.37;96783.88;6195558;28;20038;-69
2023/09/06 12:18:24;;;;;;;5.75;4.03;;;;;;;23.09;40.85;96772.34;6194966;28;20534;-69
2023/09/06 12:21:31;;;;;;;5.70;4.43;;;;;;;22.61;42.19;96779.69;6195496;28;20070;-70
2023/09/06 12:24:33;;;;;;;9.48;4.00;;;;;;;22.26;42.94;96776.53;6194316;28;20050;-68
2023/09/06 12:27:37;;;;;;;7.50;5.22;;;;;;;22.05;43.49;96773.56;6195120;28;20045;-69
2023/09/06 12:30:45;;;;;;;5.20;4.32;;;;;;;21.88;43.82;96775.47;6195348;28;20046;-70
2023/09/06 12:33:51;;;;;;;3.95;3.55;;;;;;;21.78;44.03;96772.19;6195217;28;20061;-68
2023/09/06 12:36:55;;;;;;;5.55;3.92;;;;;;;21.71;44.15;96766.66;6195171;28;20413;-69
2023/09/06 12:39:59;;;;;;;4.20;3.30;;;;;;;21.51;44.48;96761.72;6195570;28;20051;-69
2023/09/06 12:43:05;;;;;;;4.20;3.28;;;;;;;21.55;44.62;96772.91;6195081;28;20050;-70
2023/09/06 12:46:06;;;;;;;4.63;3.88;;;;;;;21.56;44.78;96773.75;6194961;28;20504;-69
2023/09/06 12:49:11;;;;;;;7.30;6.15;;;;;;;21.79;44.54;96769.31;6194581;28;20049;-69
2023/09/06 12:52:20;;;;;;;8.00;4.90;;;;;;;21.95;44.28;96763.91;6195276;28;20042;-69
2023/09/06 12:55:21;;;;;;;5.85;4.40;;;;;;;22.01;44.23;96764.22;6195116;28;20045;-68
2023/09/06 12:58:27;;;;;;;9.63;5.30;;;;;;;22.07;44.54;96763.53;6194584;28;20046;-68
2023/09/06 13:01:28;;;;;;;7.80;5.18;;;;;;;21.91;44.55;96757.25;6195109;28;20049;-68
2023/09/06 13:04:32;;;;;;;5.88;4.38;;;;;;;21.39;45.47;96751.53;6194993;28;20089;-68
2023/09/06 13:07:37;;;;;;;4.70;3.70;;;;;;;20.90;46.74;96763.06;6193316;28;20053;-69
2023/09/06 13:10:43;;;;;;;5.68;4.50;;;;;;;20.44;47.76;96754.63;6195144;28;20069;-70
2023/09/06 13:13:53;;;;;;;6.38;4.45;;;;;;;20.03;49.13;96748.31;6194838;28;20046;-70
2023/09/06 13:16:59;;;;;;;8.20;5.43;;;;;;;19.56;50.53;96746.94;6193796;28;20050;-70
2023/09/06 13:20:10;;;;;;;6.63;4.63;;;;;;;19.18;52.16;96741.00;6194993;28;20047;-70
2023/09/06 13:23:14;;;;;;;6.63;4.20;;;;;;;18.96;53.11;96728.19;6194702;28;20054;-69
2023/09/06 13:26:18;;;;;;;8.15;6.10;;;;;;;18.80;54.21;96735.06;6194937;28;20046;-69
2023/09/06 13:29:19;;;;;;;9.88;6.18;;;;;;;18.55;54.70;96727.81;6193584;28;20061;-69
2023/09/06 13:32:21;;;;;;;9.00;5.85;;;;;;;18.41;55.81;96729.19;6193739;28;20406;-68
2023/09/06 13:35:25;;;;;;;11.85;5.85;;;;;;;18.27;55.81;96727.88;6194872;28;20129;-68
2023/09/06 13:38:26;;;;;;;;;;;;;;;18.07;55.45;96726.34;6195375;28;20034;-68
2023/09/06 13:41:32;;;;;;;8.35;4.95;;;;;;;18.11;56.37;96730.38;6194937;28;19921;-68
2023/09/06 13:44:36;;;;;;;6.72;4.45;;;;;;;17.95;56.54;96717.72;6198877;28;20043;-69
2023/09/06 13:47:43;;;;;;;6.05;4.47;;;;;;;18.00;56.75;96719.94;6202823;28;20098;-69
2023/09/06 13:50:44;;;;;;;4.88;3.53;;;;;;;17.90;56.88;96707.50;6199559;28;20567;-69
2023/09/06 13:53:52;;;;;;;6.47;4.05;;;;;;;17.87;57.51;96705.16;6199364;28;20038;-69
2023/09/06 13:56:55;;;;;;;9.90;4.10;;;;;;;17.84;57.34;96716.09;6199148;28;20042;-70
2023/09/06 13:59:57;;;;;;;9.80;5.70;;;;;;;17.91;57.48;96721.66;6199072;28;20041;-69
2023/09/06 14:03:04;;;;;;;7.18;5.00;;;;;;;17.71;58.36;96715.56;6199004;28;20493;-68
2023/09/06 14:06:09;;;;;;;5.78;4.00;;;;;;;17.66;57.95;96720.50;6198694;28;20050;-69
2023/09/06 14:09:16;;;;;;;5.82;4.35;;;;;;;17.60;58.34;96718.41;6199026;28;20494;-69
2023/09/06 14:12:19;;;;;;;12.93;8.82;;;;;;;17.48;57.87;96721.28;6198831;28;20049;-69
2023/09/06 14:15:21;;;;;;;;;;;;;;;17.38;57.63;96715.16;6198652;28;20055;-69
2023/09/06 14:18:26;;;;;;;7.38;4.43;;;;;;;17.23;58.44;96711.28;6198559;28;19922;-69
2023/09/06 14:21:29;;;;;;;6.03;4.35;;;;;;;17.09;59.00;96720.56;6198477;28;20418;-70
2023/09/06 14:24:34;;;;;;;7.05;4.05;;;;;;;17.03;59.24;96716.66;6198393;28;20513;-68
2023/09/06 14:27:35;;;;;;;5.68;3.97;;;;;;;16.97;59.57;96717.22;6198350;28;20437;-69
2023/09/06 14:30:42;;;;;;;;;;;;;;;16.92;59.52;96724.78;6198716;28;20034;-68